createdAt,value
2018-12-03T00:01:45.577Z,97910.37
2018-12-03T00:04:16.552Z,97913.75
2018-12-03T00:06:45.145Z,97923.73
2018-12-03T00:09:14.253Z,97924.17
2018-12-03T00:11:42.699Z,97925.19
2018-12-03T00:14:11.263Z,97928.11
2018-12-03T00:16:40.704Z,97930.16
2018-12-03T00:19:09.829Z,97931.62
2018-12-03T00:21:39.931Z,97926.78
2018-12-03T00:24:08.480Z,97923.16
2018-12-03T00:26:37.991Z,97926.67
2018-12-03T00:29:07.212Z,97916.53
2018-12-03T00:31:36.301Z,97913.00
2018-12-03T00:34:05.547Z,97912.10
2018-12-03T00:36:34.882Z,97910.53
2018-12-03T00:39:03.461Z,97903.66
2018-12-03T00:41:32.956Z,97903.91
2018-12-03T00:44:02.094Z,97901.41
2018-12-03T00:46:30.553Z,97900.77
2018-12-03T00:48:59.323Z,97924.52
2018-12-03T00:51:29.160Z,97924.65
2018-12-03T00:53:58.100Z,97930.36
2018-12-03T00:56:26.574Z,97925.90
2018-12-03T00:58:56.522Z,97917.95
2018-12-03T01:01:25.351Z,97928.81
2018-12-03T01:03:53.928Z,97930.60
2018-12-03T01:06:22.766Z,97927.50
2018-12-03T01:08:51.227Z,97915.56
2018-12-03T01:11:20.027Z,97918.45
2018-12-03T01:13:49.414Z,97921.00
2018-12-03T01:16:18.110Z,97916.67
2018-12-03T01:18:47.111Z,97924.14
2018-12-03T01:21:16.358Z,97920.06
2018-12-03T01:23:45.387Z,97923.91
2018-12-03T01:26:14.169Z,97922.27
2018-12-03T01:28:43.653Z,97921.91
2018-12-03T01:31:12.484Z,97921.91
2018-12-03T01:33:40.953Z,97916.27
2018-12-03T01:36:10.300Z,97916.41
2018-12-03T01:38:39.013Z,97922.65
2018-12-03T01:41:07.695Z,97933.63
2018-12-03T01:43:36.863Z,97925.68
2018-12-03T01:46:06.618Z,97917.45
2018-12-03T01:48:35.042Z,97917.38
2018-12-03T01:51:03.525Z,97915.25
2018-12-03T01:53:32.290Z,97913.37
2018-12-03T01:56:01.362Z,97919.96
2018-12-03T01:58:30.534Z,97924.73
2018-12-03T02:00:59.462Z,97926.97
2018-12-03T02:03:28.932Z,97932.69
2018-12-03T02:05:58.040Z,97938.17
2018-12-03T02:08:26.830Z,97934.37
2018-12-03T02:10:55.310Z,97926.10
2018-12-03T02:13:23.793Z,97926.59
2018-12-03T02:15:52.569Z,97917.23
2018-12-03T02:18:22.500Z,97916.95
2018-12-03T02:20:50.992Z,97920.94
2018-12-03T02:23:20.428Z,97922.30
2018-12-03T02:25:48.885Z,97914.41
2018-12-03T02:28:17.839Z,97908.66
2018-12-03T02:30:46.791Z,97920.80
2018-12-03T02:33:15.862Z,97914.51
2018-12-03T02:35:44.882Z,97914.61
2018-12-03T02:38:14.418Z,97918.48
2018-12-03T02:40:43.635Z,97910.39
2018-12-03T02:43:12.629Z,97917.89
2018-12-03T02:45:41.068Z,97912.37
2018-12-03T02:48:10.314Z,97905.58
2018-12-03T02:50:40.194Z,97899.20
2018-12-03T02:53:09.490Z,97894.00
2018-12-03T02:55:38.801Z,97899.05
2018-12-03T02:58:07.741Z,97894.94
2018-12-03T03:00:38.919Z,97898.50
2018-12-03T03:03:08.095Z,97892.53
2018-12-03T03:05:37.306Z,97891.39
2018-12-03T03:08:06.390Z,97887.52
2018-12-03T03:10:35.078Z,97884.59
2018-12-03T03:13:04.471Z,97886.89
2018-12-03T03:15:32.966Z,97881.34
2018-12-03T03:18:02.158Z,97883.22
2018-12-03T03:20:32.075Z,97886.73
2018-12-03T03:23:01.206Z,97895.03
2018-12-03T03:25:29.663Z,97892.66
2018-12-03T03:27:58.123Z,97909.38
2018-12-03T03:30:27.215Z,97893.38
2018-12-03T03:32:55.900Z,97902.18
2018-12-03T03:35:25.097Z,97892.97
2018-12-03T03:37:54.154Z,97880.89
2018-12-03T03:40:23.466Z,97870.12
2018-12-03T03:42:52.103Z,97876.91
2018-12-03T03:45:22.401Z,97876.25
2018-12-03T03:47:51.139Z,97890.91
2018-12-03T03:50:20.222Z,97887.34
2018-12-03T03:52:48.909Z,97882.67
2018-12-03T03:55:18.059Z,97875.17
2018-12-03T03:57:46.808Z,97862.13
2018-12-03T04:00:16.112Z,97860.52
2018-12-03T04:02:45.257Z,97863.86
2018-12-03T04:05:14.750Z,97856.56
2018-12-03T04:07:44.470Z,97869.13
2018-12-03T04:10:14.186Z,97872.08
2018-12-03T04:12:43.449Z,97863.83
2018-12-03T04:15:13.251Z,97862.28
2018-12-03T04:17:41.960Z,97856.78
2018-12-03T04:20:12.493Z,97856.50
2018-12-03T04:22:41.545Z,97856.40
2018-12-03T04:25:11.182Z,97844.05
2018-12-03T04:27:39.640Z,97840.28
2018-12-03T04:30:15.860Z,97849.28
2018-12-03T04:32:44.897Z,97854.03
2018-12-03T04:35:14.585Z,97868.13
2018-12-03T04:37:43.675Z,97886.51
2018-12-03T04:40:14.215Z,97897.91
2018-12-03T04:42:43.225Z,97906.36
2018-12-03T04:45:16.044Z,97912.81
2018-12-03T04:47:44.506Z,97921.07
2018-12-03T04:50:14.605Z,97930.30
2018-12-03T04:52:43.276Z,97937.83
2018-12-03T04:55:12.739Z,97937.14
2018-12-03T04:57:41.494Z,97943.78
2018-12-03T05:00:12.699Z,97948.70
2018-12-03T05:02:41.936Z,97953.41
2018-12-03T05:05:10.879Z,97941.76
2018-12-03T05:07:39.736Z,97932.52
2018-12-03T05:10:15.180Z,97921.34
2018-12-03T05:12:45.842Z,97909.48
2018-12-03T05:15:14.702Z,97889.31
2018-12-03T05:17:43.761Z,97889.03
2018-12-03T05:20:14.541Z,97872.61
2018-12-03T05:22:44.091Z,97871.78
2018-12-03T05:25:11.713Z,97874.04
2018-12-03T05:27:41.067Z,97868.59
2018-12-03T05:30:13.795Z,97859.89
2018-12-03T05:32:42.799Z,97860.17
2018-12-03T05:35:12.713Z,97856.33
2018-12-03T05:37:41.556Z,97867.42
2018-12-03T05:40:13.314Z,97882.14
2018-12-03T05:42:42.386Z,97893.69
2018-12-03T05:45:10.988Z,97893.55
2018-12-03T05:47:40.018Z,97890.55
2018-12-03T05:50:10.841Z,97879.29
2018-12-03T05:52:40.568Z,97898.99
2018-12-03T05:55:10.354Z,97897.32
2018-12-03T05:57:40.024Z,97899.69
2018-12-03T06:00:11.359Z,97895.65
2018-12-03T06:02:40.219Z,97888.50
2018-12-03T06:05:09.676Z,97883.54
2018-12-03T06:07:38.467Z,97892.27
2018-12-03T06:10:12.954Z,97886.30
2018-12-03T06:12:41.953Z,97893.62
2018-12-03T06:15:18.266Z,97891.60
2018-12-03T06:17:48.059Z,97899.73
2018-12-03T06:20:17.561Z,97901.98
2018-12-03T06:22:46.712Z,97906.70
2018-12-03T06:25:18.284Z,97908.70
2018-12-03T06:27:47.531Z,97910.47
2018-12-03T06:30:19.335Z,97913.37
2018-12-03T06:32:47.806Z,97914.20
2018-12-03T06:35:17.094Z,97907.30
2018-12-03T06:37:46.202Z,97914.54
2018-12-03T06:40:19.255Z,97915.23
2018-12-03T06:42:47.746Z,97919.84
2018-12-03T06:45:20.321Z,97920.35
2018-12-03T06:47:55.662Z,97913.58
2018-12-03T06:50:24.448Z,97909.81
2018-12-03T06:52:59.626Z,97910.12
2018-12-03T06:55:30.195Z,97908.87
2018-12-03T06:58:02.451Z,97912.30
2018-12-03T07:00:34.156Z,97907.90
2018-12-03T07:03:06.224Z,97909.77
2018-12-03T07:05:35.918Z,97913.81
2018-12-03T07:08:06.567Z,97901.06
2018-12-03T07:10:35.123Z,97901.76
2018-12-03T07:13:18.932Z,97906.19
2018-12-03T07:15:50.206Z,97894.65
2018-12-03T07:18:22.169Z,97903.73
2018-12-03T07:20:53.714Z,97907.88
2018-12-03T07:23:27.484Z,97910.75
2018-12-03T07:25:59.978Z,97912.49
2018-12-03T07:31:20.420Z,97913.35
2018-12-03T07:34:03.425Z,97910.91
2018-12-03T07:36:37.870Z,97916.05
2018-12-03T07:39:09.964Z,97911.61
2018-12-03T07:41:38.719Z,97917.58
2018-12-03T07:44:07.962Z,97916.75
2018-12-03T07:46:37.993Z,97922.19
2018-12-03T07:49:06.678Z,97933.02
2018-12-03T07:51:35.613Z,97925.77
2018-12-03T07:54:04.719Z,97926.60
2018-12-03T07:56:36.838Z,97928.77
2018-12-03T07:59:27.466Z,97928.98
2018-12-03T08:02:13.337Z,97933.79
2018-12-03T08:04:44.836Z,97935.77
2018-12-03T08:07:15.664Z,97933.91
2018-12-03T08:09:44.350Z,97934.77
2018-12-03T08:12:13.139Z,97925.95
2018-12-03T08:14:44.078Z,97922.04
2018-12-03T08:17:14.454Z,97932.60
2018-12-03T08:19:46.674Z,97929.63
2018-12-03T08:22:17.090Z,97926.00
2018-12-03T08:24:50.573Z,97941.39
2018-12-03T08:27:20.326Z,97946.13
2018-12-03T08:29:50.919Z,97954.31
2018-12-03T08:32:21.623Z,97950.34
2018-12-03T08:34:53.019Z,97947.04
2018-12-03T08:37:21.963Z,97947.58
2018-12-03T08:39:59.295Z,97950.33
2018-12-03T08:42:34.599Z,97951.15
2018-12-03T08:45:04.515Z,97948.67
2018-12-03T08:47:46.337Z,97955.97
2018-12-03T08:50:23.668Z,97954.85
2018-12-03T08:52:54.882Z,97956.03
2018-12-03T08:55:25.430Z,97949.23
2018-12-03T08:57:54.781Z,97946.05
2018-12-03T09:00:28.250Z,97959.48
2018-12-03T09:03:04.029Z,97946.95
2018-12-03T09:05:40.045Z,97954.00
2018-12-03T09:08:14.306Z,97949.34
2018-12-03T09:10:44.170Z,97941.08
2018-12-03T09:13:17.604Z,97940.83
2018-12-03T09:15:56.329Z,97953.83
2018-12-03T09:18:38.049Z,97950.39
2018-12-03T09:21:14.099Z,97946.28
2018-12-03T09:23:45.524Z,97952.45
2018-12-03T09:26:24.705Z,97941.20
2018-12-03T09:28:55.650Z,97938.31
2018-12-03T09:31:32.391Z,97951.47
2018-12-03T09:34:02.694Z,97955.30
2018-12-03T09:36:34.115Z,97963.47
2018-12-03T09:39:08.567Z,97956.48
2018-12-03T09:41:39.718Z,97942.78
2018-12-03T09:44:09.311Z,97946.27
2018-12-03T09:46:38.156Z,97940.41
2018-12-03T09:49:07.392Z,97943.89
2018-12-03T09:51:37.254Z,97928.31
2018-12-03T09:54:07.399Z,97934.45
2018-12-03T09:56:52.616Z,97942.55
2018-12-03T09:59:22.717Z,97941.32
2018-12-03T10:01:53.357Z,97947.67
2018-12-03T10:04:30.600Z,97937.10
2018-12-03T10:07:00.107Z,97920.92
2018-12-03T10:09:39.067Z,97921.18
2018-12-03T10:12:09.102Z,97940.26
2018-12-03T10:14:46.585Z,97928.12
2018-12-03T10:19:59.418Z,97927.84
2018-12-03T10:22:32.094Z,97930.63
2018-12-03T10:25:02.394Z,97924.14
2018-12-03T10:27:31.062Z,97917.70
2018-12-03T10:30:00.119Z,97912.54
2018-12-03T10:32:29.106Z,97914.80
2018-12-03T10:35:13.996Z,97915.69
2018-12-03T10:37:42.790Z,97919.03
2018-12-03T10:40:18.450Z,97918.98
2018-12-03T10:42:49.878Z,97910.03
2018-12-03T10:45:26.134Z,97912.54
2018-12-03T10:47:55.434Z,97910.17
2018-12-03T10:50:24.922Z,97910.17
2018-12-03T10:52:53.947Z,97902.46
2018-12-03T10:56:02.155Z,97894.58
2018-12-03T10:58:36.335Z,97887.65
2018-12-03T11:01:16.240Z,97885.48
2018-12-03T11:03:55.171Z,97882.13
2018-12-03T11:06:32.352Z,97886.29
2018-12-03T11:09:01.985Z,97875.59
2018-12-03T11:11:31.446Z,97871.27
2018-12-03T11:14:16.382Z,97862.36
2018-12-03T11:16:48.793Z,97870.18
2018-12-03T11:19:21.316Z,97868.58
2018-12-03T11:21:51.668Z,97853.25
2018-12-03T11:24:21.817Z,97856.89
2018-12-03T11:26:57.630Z,97863.84
2018-12-03T11:29:47.329Z,97863.09
2018-12-03T11:32:24.148Z,97857.77
2018-12-03T11:34:52.635Z,97858.00
2018-12-03T11:37:21.628Z,97854.58
2018-12-03T11:39:56.351Z,97856.58
2018-12-03T11:42:35.195Z,97855.27
2018-12-03T11:45:09.527Z,97856.48
2018-12-03T11:47:41.422Z,97863.02
2018-12-03T11:50:14.054Z,97849.12
2018-12-03T11:52:45.470Z,97861.41
2018-12-03T11:55:16.315Z,97849.02
2018-12-03T11:57:56.939Z,97849.74
2018-12-03T12:00:27.210Z,97847.98
2018-12-03T12:02:57.157Z,97836.45
2018-12-03T12:05:30.976Z,97816.23
2018-12-03T12:08:01.048Z,97820.03
2018-12-03T12:10:30.872Z,97807.63
2018-12-03T12:13:05.451Z,97816.75
2018-12-03T12:15:34.641Z,97809.12
2018-12-03T12:18:03.199Z,97805.03
2018-12-03T12:20:31.672Z,97793.46
2018-12-03T12:23:01.294Z,97790.80
2018-12-03T12:25:29.752Z,97807.56
2018-12-03T12:28:00.263Z,97793.34
2018-12-03T12:30:28.966Z,97800.20
2018-12-03T12:32:57.426Z,97802.62
2018-12-03T12:35:25.966Z,97809.52
2018-12-03T12:37:56.881Z,97799.00
2018-12-03T12:40:24.940Z,97803.13
2018-12-03T12:42:53.415Z,97806.13
2018-12-03T12:45:27.933Z,97811.16
2018-12-03T12:47:56.891Z,97812.99
2018-12-03T12:50:25.406Z,97818.59
2018-12-03T12:52:53.873Z,97816.62
2018-12-03T12:55:23.747Z,97808.80
2018-12-03T12:57:53.353Z,97810.18
2018-12-03T13:00:22.849Z,97811.80
2018-12-03T13:02:53.137Z,97811.09
2018-12-03T13:05:22.526Z,97810.11
2018-12-03T13:07:51.001Z,97811.91
2018-12-03T13:10:19.523Z,97809.92
2018-12-03T13:12:52.797Z,97806.58
2018-12-03T13:15:23.111Z,97800.69
2018-12-03T13:17:57.017Z,97802.94
2018-12-03T13:20:28.245Z,97812.16
2018-12-03T13:22:57.669Z,97818.38
2018-12-03T13:25:28.376Z,97809.09
2018-12-03T13:27:57.914Z,97803.37
2018-12-03T13:30:32.846Z,97800.11
2018-12-03T13:33:05.401Z,97792.17
2018-12-03T13:35:35.581Z,97792.17
2018-12-03T13:38:11.804Z,97794.10
2018-12-03T13:40:41.758Z,97795.36
2018-12-03T13:43:14.925Z,97786.55
2018-12-03T13:45:43.846Z,97793.76
2018-12-03T13:48:19.537Z,97788.52
2018-12-03T13:50:48.905Z,97774.41
2018-12-03T13:53:19.937Z,97771.94
2018-12-03T13:55:52.024Z,97776.87
2018-12-03T13:58:21.974Z,97773.19
2018-12-03T14:03:47.603Z,97760.29
2018-12-03T14:06:26.905Z,97761.50
2018-12-03T14:09:21.616Z,97764.50
2018-12-03T14:12:03.018Z,97764.27
2018-12-03T14:14:47.764Z,97766.38
2018-12-03T14:17:28.551Z,97776.65
2018-12-03T14:19:59.518Z,97768.21
2018-12-03T14:22:43.458Z,97774.72
2018-12-03T14:25:13.013Z,97779.55
2018-12-03T14:27:43.747Z,97776.20
2018-12-03T14:30:13.907Z,97771.04
2018-12-03T14:32:44.690Z,97761.63
2018-12-03T14:35:15.540Z,97766.88
2018-12-03T14:37:44.487Z,97762.90
2018-12-03T14:40:13.615Z,97754.13
2018-12-03T14:42:44.076Z,97760.25
2018-12-03T14:45:15.949Z,97755.11
2018-12-03T14:47:45.375Z,97769.01
2018-12-03T14:50:15.103Z,97763.36
2018-12-03T14:52:44.439Z,97764.59
2018-12-03T14:55:13.248Z,97768.43
2018-12-03T14:57:42.046Z,97764.19
2018-12-03T15:00:19.653Z,97771.45
2018-12-03T15:02:50.068Z,97770.24
2018-12-03T15:05:21.125Z,97769.06
2018-12-03T15:07:50.072Z,97764.68
2018-12-03T15:10:19.952Z,97762.08
2018-12-03T15:12:49.182Z,97761.79
2018-12-03T15:15:18.613Z,97763.55
2018-12-03T15:17:48.305Z,97777.63
2018-12-03T15:20:17.038Z,97774.69
2018-12-03T15:22:46.685Z,97756.48
2018-12-03T15:25:15.602Z,97765.71
2018-12-03T15:27:44.085Z,97765.56
2018-12-03T15:30:13.175Z,97764.02
2018-12-03T15:32:41.737Z,97762.27
2018-12-03T15:35:12.437Z,97758.88
2018-12-03T15:37:42.253Z,97752.09
2018-12-03T15:40:14.018Z,97761.88
2018-12-03T15:42:42.782Z,97765.16
2018-12-03T15:45:15.248Z,97764.66
2018-12-03T15:47:44.882Z,97756.40
2018-12-03T15:50:13.732Z,97761.21
2018-12-03T15:52:42.236Z,97767.48
2018-12-03T15:55:13.363Z,97772.45
2018-12-03T15:57:43.844Z,97781.31
2018-12-03T16:00:13.753Z,97782.97
2018-12-03T16:02:42.946Z,97790.79
2018-12-03T16:05:19.992Z,97786.50
2018-12-03T16:07:48.953Z,97777.23
2018-12-03T16:10:19.061Z,97776.05
2018-12-03T16:12:48.163Z,97773.12
2018-12-03T16:15:17.247Z,97772.00
2018-12-03T16:17:46.703Z,97771.81
2018-12-03T16:20:15.475Z,97778.55
2018-12-03T16:22:44.500Z,97773.56
2018-12-03T16:25:13.342Z,97765.95
2018-12-03T16:27:48.852Z,97769.80
2018-12-03T16:30:21.280Z,97765.72
2018-12-03T16:32:56.536Z,97758.13
2018-12-03T16:35:28.589Z,97765.98
2018-12-03T16:38:02.151Z,97753.66
2018-12-03T16:40:32.847Z,97760.84
2018-12-03T16:43:07.163Z,97753.71
2018-12-03T16:45:35.822Z,97770.30
2018-12-03T16:48:06.248Z,97765.14
2018-12-03T16:50:36.072Z,97765.84
2018-12-03T16:53:12.089Z,97763.19
2018-12-03T16:55:41.180Z,97757.69
2018-12-03T16:58:10.857Z,97753.31
2018-12-03T17:00:43.135Z,97746.41
2018-12-03T17:03:12.077Z,97751.50
2018-12-03T17:05:41.672Z,97748.69
2018-12-03T17:08:10.110Z,97762.91
2018-12-03T17:10:51.815Z,97742.48
2018-12-03T17:13:26.141Z,97748.34
2018-12-03T17:18:41.955Z,97757.14
2018-12-03T17:21:20.548Z,97750.62
2018-12-03T17:24:11.406Z,97745.95
2018-12-03T17:26:47.370Z,97753.16
2018-12-03T17:29:20.393Z,97755.64
2018-12-03T17:31:53.638Z,97758.12
2018-12-03T17:34:23.345Z,97767.25
2018-12-03T17:36:52.232Z,97764.45
2018-12-03T17:39:25.404Z,97765.16
2018-12-03T17:41:58.372Z,97771.67
2018-12-03T17:44:28.904Z,97774.38
2018-12-03T17:47:03.561Z,97766.06
2018-12-03T17:49:34.679Z,97764.91
2018-12-03T17:52:08.902Z,97765.57
2018-12-03T17:54:38.359Z,97763.86
2018-12-03T17:57:09.730Z,97768.84
2018-12-03T17:59:43.828Z,97768.14
2018-12-03T18:02:17.812Z,97757.00
2018-12-03T18:04:54.532Z,97762.59
2018-12-03T18:07:23.171Z,97763.27
2018-12-03T18:09:55.575Z,97768.94
2018-12-03T18:12:30.943Z,97762.78
2018-12-03T18:15:00.351Z,97766.02
2018-12-03T18:17:29.681Z,97763.37
2018-12-03T18:20:01.324Z,97764.89
2018-12-03T18:22:31.681Z,97772.22
2018-12-03T18:25:00.941Z,97766.08
2018-12-03T18:27:29.704Z,97761.06
2018-12-03T18:30:00.452Z,97768.69
2018-12-03T18:32:33.302Z,97769.20
2018-12-03T18:35:08.451Z,97770.17
2018-12-03T18:37:40.925Z,97775.81
2018-12-03T18:40:15.689Z,97785.29
2018-12-03T18:42:47.987Z,97776.36
2018-12-03T18:45:20.666Z,97774.27
2018-12-03T18:47:53.543Z,97777.89
2018-12-03T18:50:36.528Z,97783.37
2018-12-03T18:53:14.590Z,97789.34
2018-12-03T18:55:45.751Z,97796.91
2018-12-03T18:58:18.452Z,97800.52
2018-12-03T19:00:48.019Z,97795.39
2018-12-03T19:03:17.598Z,97802.27
2018-12-03T19:05:50.037Z,97805.95
2018-12-03T19:08:21.574Z,97801.05
2018-12-03T19:10:58.057Z,97802.38
2018-12-03T19:13:29.393Z,97808.25
2018-12-03T19:16:03.711Z,97812.36
2018-12-03T19:18:32.323Z,97819.73
2018-12-03T19:21:02.479Z,97811.23
2018-12-03T19:23:34.657Z,97812.63
2018-12-03T19:26:09.686Z,97817.03
2018-12-03T19:28:41.714Z,97816.33
2018-12-03T19:31:13.012Z,97824.28
2018-12-03T19:33:42.442Z,97818.58
2018-12-03T19:36:16.596Z,97829.02
2018-12-03T19:38:48.865Z,97830.61
2018-12-03T19:41:24.943Z,97833.82
2018-12-03T19:43:55.672Z,97832.98
2018-12-03T19:46:28.464Z,97834.03
2018-12-03T19:49:02.091Z,97835.34
2018-12-03T19:51:32.896Z,97836.77
2018-12-03T19:54:09.923Z,97839.80
2018-12-03T19:56:42.612Z,97839.66
2018-12-03T19:59:15.502Z,97843.02
2018-12-03T20:01:45.156Z,97837.26
2018-12-03T20:04:27.159Z,97847.34
2018-12-03T20:06:55.619Z,97858.84
2018-12-03T20:09:27.631Z,97859.64
2018-12-03T20:12:00.594Z,97865.86
2018-12-03T20:14:35.545Z,97869.44
2018-12-03T20:17:08.024Z,97865.91
2018-12-03T20:19:38.357Z,97863.70
2018-12-03T20:22:10.885Z,97873.43
2018-12-03T20:24:42.158Z,97870.08
2018-12-03T20:28:19.327Z,97870.58
2018-12-03T20:30:58.759Z,97884.52
2018-12-03T20:33:36.397Z,97881.73
2018-12-03T20:36:21.099Z,97882.98
2018-12-03T20:39:06.969Z,97889.00
2018-12-03T20:41:39.809Z,97903.60
2018-12-03T20:44:22.231Z,97906.38
2018-12-03T20:47:00.446Z,97919.86
2018-12-03T20:49:43.840Z,97925.98
2018-12-03T20:52:21.216Z,97926.12
2018-12-03T20:54:52.819Z,97926.60
2018-12-03T20:57:21.266Z,97933.59
2018-12-03T20:59:51.755Z,97938.98
2018-12-03T21:02:21.750Z,97953.05
2018-12-03T21:04:50.477Z,97956.86
2018-12-03T21:07:18.920Z,97963.08
2018-12-03T21:09:47.449Z,97964.05
2018-12-03T21:12:17.833Z,97960.17
2018-12-03T21:14:46.297Z,97971.11
2018-12-03T21:17:15.210Z,97978.11
2018-12-03T21:19:46.824Z,97976.56
2018-12-03T21:22:17.456Z,97979.05
2018-12-03T21:24:46.312Z,97984.84
2018-12-03T21:27:20.927Z,97978.37
2018-12-03T21:29:51.901Z,97978.72
2018-12-03T21:32:21.497Z,97974.20
2018-12-03T21:34:59.207Z,97964.58
2018-12-03T21:37:29.527Z,97971.90
2018-12-03T21:39:59.269Z,97977.05
2018-12-03T21:42:28.811Z,97973.45
2018-12-03T21:44:59.904Z,97965.91
2018-12-03T21:47:29.180Z,97972.39
2018-12-03T21:50:04.328Z,97988.14
2018-12-03T21:52:31.461Z,97994.13
2018-12-03T21:55:00.342Z,97991.59
2018-12-03T21:57:32.138Z,97997.27
2018-12-03T22:00:01.512Z,97995.94
2018-12-03T22:02:30.846Z,97995.19
2018-12-03T22:05:01.880Z,98001.38
2018-12-03T22:07:31.038Z,97994.84
2018-12-03T22:10:02.373Z,97997.88
2018-12-03T22:12:32.486Z,98003.40
2018-12-03T22:15:03.287Z,98010.56
2018-12-03T22:17:32.361Z,98008.84
2018-12-03T22:20:00.816Z,98018.09
2018-12-03T22:22:29.310Z,98020.84
2018-12-03T22:24:57.775Z,98022.20
2018-12-03T22:27:28.082Z,98036.23
2018-12-03T22:29:57.310Z,98024.45
2018-12-03T22:32:26.575Z,98033.63
2018-12-03T22:34:55.036Z,98036.01
2018-12-03T22:37:25.153Z,98036.14
2018-12-03T22:39:55.384Z,98024.16
2018-12-03T22:42:23.870Z,98025.72
2018-12-03T22:44:54.130Z,98034.55
2018-12-03T22:47:23.099Z,98044.80
2018-12-03T22:49:51.969Z,98044.09
2018-12-03T22:52:20.438Z,98048.20
2018-12-03T22:54:50.005Z,98039.02
2018-12-03T22:57:18.467Z,98043.70
2018-12-03T22:59:47.637Z,98051.78
2018-12-03T23:02:18.117Z,98051.01
2018-12-03T23:04:48.176Z,98046.55
2018-12-03T23:07:17.494Z,98055.20
2018-12-03T23:09:46.478Z,98066.19
2018-12-03T23:12:14.946Z,98063.29
2018-12-03T23:14:44.098Z,98062.63
2018-12-03T23:17:13.658Z,98068.94
2018-12-03T23:19:42.108Z,98089.20
2018-12-03T23:22:13.546Z,98081.48
2018-12-03T23:24:42.834Z,98079.45
2018-12-03T23:27:11.879Z,98095.56
2018-12-03T23:29:40.321Z,98097.24
2018-12-03T23:32:08.773Z,98093.27
2018-12-03T23:34:39.142Z,98094.09
2018-12-03T23:37:07.634Z,98103.23
2018-12-03T23:39:36.114Z,98103.23
2018-12-03T23:42:04.687Z,98107.48
2018-12-03T23:44:33.369Z,98117.02
2018-12-03T23:47:01.956Z,98108.80
2018-12-03T23:49:31.993Z,98109.64
2018-12-03T23:52:00.435Z,98113.13
2018-12-03T23:54:28.878Z,98131.68
2018-12-03T23:56:57.930Z,98102.45
2018-12-03T23:59:27.474Z,98108.59
